Time;durP1;ratioP1;P1;durP2;ratioP2;P2;SDS_P1;SDS_P2;PMS_P1;PMS_P2;Temp;Humidity;BMP_temperature;BMP_pressure;BME280_temperature;BME280_humidity;BME280_pressure;Samples;Min_cycle;Max_cycle;Signal;HPM_P1;HPM_P2
2021/05/31 00:01:12;;;;;;;2.70;1.70;;;;;;;;;;5015324;28;20092;-48
2021/05/31 00:03:38;;;;;;;2.85;2.25;;;;;;;;;;5020667;28;20034;-49
2021/05/31 00:06:03;;;;;;;2.72;1.55;;;;;;;;;;5021641;28;20038;-48
2021/05/31 00:08:29;;;;;;;3.95;2.60;;;;;;;;;;5018911;28;20069;-49
2021/05/31 00:10:54;;;;;;;2.08;1.77;;;;;;;;;;5023241;28;20487;-50
2021/05/31 00:13:20;;;;;;;2.35;1.67;;;;;;;;;;5022427;28;20026;-49
2021/05/31 00:15:46;;;;;;;3.28;2.40;;;;;;;;;;5018888;28;20119;-48
2021/05/31 00:18:14;;;;;;;3.45;2.40;;;;;;;;;;5022961;28;20022;-48
2021/05/31 00:20:39;;;;;;;3.05;1.80;;;;;;;;;;5024140;28;20132;-47
2021/05/31 00:23:04;;;;;;;2.75;2.00;;;;;;;;;;5020981;28;20663;-47
2021/05/31 00:25:29;;;;;;;8.10;2.33;;;;;;;;;;5023699;28;20033;-49
2021/05/31 00:27:55;;;;;;;2.13;1.83;;;;;;;;;;5019811;28;20040;-46
2021/05/31 00:30:22;;;;;;;2.67;2.22;;;;;;;;;;5021389;28;20734;-47
2021/05/31 00:32:48;;;;;;;4.00;2.40;;;;;;;;;;5017807;28;20029;-48
2021/05/31 00:35:14;;;;;;;2.78;1.88;;;;;;;;;;5021442;28;20033;-46
2021/05/31 00:37:40;;;;;;;3.30;1.35;;;;;;;;;;5021295;28;20033;-48
2021/05/31 00:40:06;;;;;;;2.38;1.95;;;;;;;;;;5017526;28;20030;-46
2021/05/31 00:42:32;;;;;;;7.32;2.75;;;;;;;;;;5018693;28;20491;-46
2021/05/31 00:44:57;;;;;;;2.58;1.90;;;;;;;;;;5020474;28;20034;-46
2021/05/31 00:47:22;;;;;;;4.15;2.00;;;;;;;;;;5018476;28;20030;-46
2021/05/31 00:49:48;;;;;;;5.78;2.30;;;;;;;;;;5019039;28;20034;-51
2021/05/31 00:52:13;;;;;;;3.80;2.63;;;;;;;;;;5018175;28;20095;-48
2021/05/31 00:54:38;;;;;;;3.00;2.40;;;;;;;;;;5018731;28;20045;-49
2021/05/31 00:57:04;;;;;;;3.22;2.45;;;;;;;;;;5022278;28;20040;-48
2021/05/31 00:59:29;;;;;;;3.33;2.10;;;;;;;;;;5023338;28;20513;-48
2021/05/31 01:01:56;;;;;;;5.43;2.65;;;;;;;;;;5020057;28;20042;-47
2021/05/31 01:04:21;;;;;;;8.80;2.70;;;;;;;;;;5021593;28;20034;-47
2021/05/31 01:07:04;;;;;;;2.38;1.95;;;;;;;;;;5021692;28;20371;-46
2021/05/31 01:09:35;;;;;;;4.32;2.30;;;;;;;;;;5018960;28;20626;-49
2021/05/31 01:12:05;;;;;;;3.88;2.65;;;;;;;;;;5019395;28;20081;-46
2021/05/31 01:14:36;;;;;;;2.13;1.70;;;;;;;;;;5020280;28;20508;-46
2021/05/31 01:17:06;;;;;;;2.97;1.60;;;;;;;;;;5020370;28;20061;-47
2021/05/31 01:19:34;;;;;;;3.60;2.00;;;;;;;;;;5020009;28;20022;-48
2021/05/31 01:22:09;;;;;;;2.80;2.00;;;;;;;;;;5016832;28;20814;-47
2021/05/31 01:24:49;;;;;;;3.38;2.20;;;;;;;;;;5020208;28;20041;-45
2021/05/31 01:27:21;;;;;;;2.40;2.20;;;;;;;;;;5019633;28;20037;-47
2021/05/31 01:29:51;;;;;;;4.05;2.10;;;;;;;;;;5018259;28;20064;-47
2021/05/31 01:32:17;;;;;;;2.33;1.83;;;;;;;;;;5021101;28;20086;-46
2021/05/31 01:34:43;;;;;;;3.33;1.92;;;;;;;;;;5019193;28;20060;-48
2021/05/31 01:37:10;;;;;;;3.50;2.35;;;;;;;;;;5020990;28;20036;-49
2021/05/31 01:39:37;;;;;;;2.75;2.15;;;;;;;;;;5019812;28;20059;-48
2021/05/31 01:42:03;;;;;;;4.53;1.70;;;;;;;;;;5018747;28;20025;-48
2021/05/31 01:44:28;;;;;;;3.90;2.33;;;;;;;;;;5020486;28;20029;-45
2021/05/31 01:46:54;;;;;;;2.25;1.60;;;;;;;;;;5019941;28;20484;-47
2021/05/31 01:49:20;;;;;;;3.85;1.85;;;;;;;;;;5020980;28;20068;-49
2021/05/31 01:51:45;;;;;;;1.58;1.13;;;;;;;;;;5020315;28;20030;-48
2021/05/31 01:54:12;;;;;;;3.00;1.92;;;;;;;;;;5017840;28;20041;-46
2021/05/31 01:56:40;;;;;;;2.25;1.95;;;;;;;;;;5018493;28;20444;-46
2021/05/31 01:59:06;;;;;;;8.55;2.30;;;;;;;;;;5019884;28;20108;-44
2021/05/31 02:01:31;;;;;;;4.82;2.20;;;;;;;;;;5017597;28;20045;-47
2021/05/31 02:03:58;;;;;;;3.42;1.85;;;;;;;;;;5018001;28;20140;-48
2021/05/31 02:06:23;;;;;;;1.75;1.30;;;;;;;;;;5017906;28;20050;-48
2021/05/31 02:08:49;;;;;;;3.17;1.85;;;;;;;;;;5017428;28;20076;-46
2021/05/31 02:11:24;;;;;;;4.45;2.30;;;;;;;;;;5020417;28;20092;-46
2021/05/31 02:13:52;;;;;;;2.05;1.50;;;;;;;;;;5017863;28;20037;-46
2021/05/31 02:16:37;;;;;;;4.95;2.13;;;;;;;;;;5016739;28;20025;-48
2021/05/31 02:19:04;;;;;;;6.95;1.60;;;;;;;;;;5015812;28;20034;-48
2021/05/31 02:21:30;;;;;;;3.58;2.67;;;;;;;;;;5018042;28;20030;-46
2021/05/31 02:23:57;;;;;;;2.90;1.73;;;;;;;;;;5017563;28;20030;-46
2021/05/31 02:26:22;;;;;;;3.78;2.35;;;;;;;;;;5017560;28;20040;-48
2021/05/31 02:28:48;;;;;;;3.13;1.70;;;;;;;;;;5018072;28;20030;-46
2021/05/31 02:31:17;;;;;;;3.22;1.77;;;;;;;;;;5018910;28;20033;-48
2021/05/31 02:33:44;;;;;;;6.43;2.72;;;;;;;;;;5019134;28;20119;-47
2021/05/31 02:36:09;;;;;;;6.57;2.63;;;;;;;;;;5016584;28;20040;-47
2021/05/31 02:38:35;;;;;;;3.38;2.42;;;;;;;;;;5018122;28;20033;-46
2021/05/31 02:41:00;;;;;;;7.63;2.80;;;;;;;;;;5018788;28;20037;-49
2021/05/31 02:43:25;;;;;;;5.40;2.70;;;;;;;;;;5018812;28;20140;-45
2021/05/31 02:45:51;;;;;;;2.33;1.80;;;;;;;;;;5017001;28;20057;-47
2021/05/31 02:48:16;;;;;;;2.60;1.73;;;;;;;;;;5015892;28;20406;-46
2021/05/31 02:50:42;;;;;;;3.45;2.00;;;;;;;;;;5017631;28;20026;-46
2021/05/31 02:53:07;;;;;;;5.15;3.20;;;;;;;;;;5016545;28;20045;-46
2021/05/31 02:55:33;;;;;;;3.08;2.38;;;;;;;;;;5016828;28;20064;-50
2021/05/31 02:57:59;;;;;;;6.57;2.20;;;;;;;;;;5017163;28;20026;-48
2021/05/31 03:00:25;;;;;;;3.97;2.08;;;;;;;;;;5020098;28;20065;-48
2021/05/31 03:02:51;;;;;;;3.58;2.25;;;;;;;;;;5017314;28;20348;-51
2021/05/31 03:05:17;;;;;;;3.50;2.40;;;;;;;;;;5018906;28;20479;-48
2021/05/31 03:07:44;;;;;;;2.17;1.42;;;;;;;;;;5021164;28;20026;-51
2021/05/31 03:10:10;;;;;;;3.75;2.15;;;;;;;;;;5019563;28;20125;-48
2021/05/31 03:12:36;;;;;;;6.28;2.50;;;;;;;;;;5016803;28;20108;-46
2021/05/31 03:15:03;;;;;;;4.82;2.67;;;;;;;;;;5017881;28;20053;-49
2021/05/31 03:17:28;;;;;;;4.28;2.85;;;;;;;;;;5019932;28;20038;-49
2021/05/31 03:19:54;;;;;;;4.70;2.85;;;;;;;;;;5015395;28;20030;-46
2021/05/31 03:22:20;;;;;;;4.22;2.28;;;;;;;;;;5014825;28;20626;-48
2021/05/31 03:24:45;;;;;;;6.10;2.75;;;;;;;;;;5015469;28;20025;-47
2021/05/31 03:27:10;;;;;;;2.60;2.00;;;;;;;;;;5017378;28;20513;-47
2021/05/31 03:29:36;;;;;;;3.35;2.00;;;;;;;;;;5020630;28;20041;-49
2021/05/31 03:32:01;;;;;;;2.28;1.75;;;;;;;;;;5018981;28;20037;-46
2021/05/31 03:34:27;;;;;;;2.72;2.00;;;;;;;;;;5019173;28;20025;-48
2021/05/31 03:36:52;;;;;;;4.65;2.58;;;;;;;;;;5020396;28;20029;-48
2021/05/31 03:39:18;;;;;;;3.95;2.47;;;;;;;;;;5019002;28;20056;-48
2021/05/31 03:41:43;;;;;;;3.90;2.58;;;;;;;;;;5019942;28;20505;-46
2021/05/31 03:44:09;;;;;;;2.38;1.65;;;;;;;;;;5020386;28;20021;-46
2021/05/31 03:46:34;;;;;;;3.33;2.38;;;;;;;;;;5019722;28;20038;-46
2021/05/31 03:49:00;;;;;;;2.67;1.58;;;;;;;;;;5018464;28;20111;-48
2021/05/31 03:51:25;;;;;;;3.63;2.15;;;;;;;;;;5021026;28;20036;-51
2021/05/31 03:53:51;;;;;;;8.57;1.67;;;;;;;;;;5020525;28;20038;-46
2021/05/31 03:56:16;;;;;;;3.58;1.95;;;;;;;;;;5020293;28;20041;-48
2021/05/31 03:58:42;;;;;;;4.97;2.08;;;;;;;;;;5020184;28;20026;-46
2021/05/31 04:01:08;;;;;;;2.67;1.88;;;;;;;;;;5019079;28;20054;-46
2021/05/31 04:03:34;;;;;;;2.42;1.73;;;;;;;;;;5022568;28;20471;-48
2021/05/31 04:11:37;;;;;;;10.77;1.75;;;;;;;;;;5022470;28;20040;-48
2021/05/31 04:14:11;;;;;;;2.50;1.80;;;;;;;;;;5022643;28;20038;-49
2021/05/31 04:16:38;;;;;;;2.40;1.52;;;;;;;;;;5022100;28;20119;-48
2021/05/31 04:19:04;;;;;;;1.42;0.95;;;;;;;;;;5016951;28;20030;-47
2021/05/31 04:21:29;;;;;;;4.40;2.20;;;;;;;;;;5017718;28;20153;-44
2021/05/31 04:23:55;;;;;;;12.52;1.90;;;;;;;;;;5018365;28;20113;-46
2021/05/31 04:26:20;;;;;;;2.22;1.73;;;;;;;;;;5023336;28;20207;-44
2021/05/31 04:28:46;;;;;;;5.20;2.45;;;;;;;;;;5021363;28;20768;-47
2021/05/31 04:31:11;;;;;;;7.65;2.80;;;;;;;;;;5021769;28;20033;-49
2021/05/31 04:33:36;;;;;;;2.15;1.77;;;;;;;;;;5020292;28;20041;-45
2021/05/31 04:36:02;;;;;;;2.47;2.25;;;;;;;;;;5022690;28;20033;-47
2021/05/31 04:38:27;;;;;;;5.68;2.05;;;;;;;;;;5018985;28;20026;-46
2021/05/31 04:40:53;;;;;;;2.22;1.38;;;;;;;;;;5017539;28;20121;-49
2021/05/31 04:43:19;;;;;;;3.17;1.83;;;;;;;;;;5019587;28;20026;-48
2021/05/31 04:45:44;;;;;;;4.43;2.05;;;;;;;;;;5022294;28;20025;-47
2021/05/31 04:48:10;;;;;;;3.05;1.75;;;;;;;;;;5014661;28;20029;-46
2021/05/31 04:50:35;;;;;;;5.38;1.88;;;;;;;;;;5023448;28;20038;-46
2021/05/31 04:53:00;;;;;;;2.58;1.88;;;;;;;;;;5015418;28;20037;-47
2021/05/31 04:55:26;;;;;;;4.35;2.42;;;;;;;;;;5020480;28;20093;-46
2021/05/31 04:57:51;;;;;;;4.10;2.28;;;;;;;;;;5019139;28;20092;-45
2021/05/31 05:00:16;;;;;;;4.88;2.22;;;;;;;;;;5025558;28;20132;-46
2021/05/31 05:02:42;;;;;;;2.97;2.15;;;;;;;;;;5021638;28;20103;-46
2021/05/31 05:05:08;;;;;;;4.53;2.00;;;;;;;;;;5020131;28;20456;-50
2021/05/31 05:07:33;;;;;;;8.88;2.97;;;;;;;;;;5020454;28;20036;-44
2021/05/31 05:09:58;;;;;;;4.40;1.50;;;;;;;;;;5018791;28;20038;-47
2021/05/31 05:12:24;;;;;;;3.38;2.17;;;;;;;;;;5020826;28;20114;-49
2021/05/31 05:14:50;;;;;;;10.68;1.85;;;;;;;;;;5020933;28;20033;-46
2021/05/31 05:17:15;;;;;;;4.35;3.95;;;;;;;;;;5022222;28;20026;-46
2021/05/31 05:19:40;;;;;;;2.97;2.67;;;;;;;;;;5020523;28;20091;-46
2021/05/31 05:22:06;;;;;;;6.78;3.10;;;;;;;;;;5018414;28;20079;-48
2021/05/31 05:24:32;;;;;;;5.68;4.07;;;;;;;;;;5017301;28;20044;-48
2021/05/31 05:26:57;;;;;;;10.25;3.38;;;;;;;;;;5022233;28;20085;-46
2021/05/31 05:29:22;;;;;;;2.70;2.38;;;;;;;;;;5020188;28;20033;-47
2021/05/31 05:31:48;;;;;;;20.92;4.68;;;;;;;;;;5020000;28;20408;-43
2021/05/31 05:34:13;;;;;;;5.43;2.67;;;;;;;;;;5018965;28;20034;-41
2021/05/31 05:39:48;;;;;;;6.68;1.23;;;;;;;;;;5020243;28;20025;-42
2021/05/31 05:47:46;;;;;;;25.25;10.95;;;;;;;;;;5013015;28;20068;-42
2021/05/31 05:50:14;;;;;;;6.68;2.42;;;;;;;;;;5003273;28;20407;-42
2021/05/31 05:52:39;;;;;;;6.05;3.72;;;;;;;;;;5020990;28;20330;-42
2021/05/31 05:55:06;;;;;;;2.08;1.05;;;;;;;;;;5020733;28;20037;-43
2021/05/31 05:57:31;;;;;;;2.65;1.45;;;;;;;;;;5002621;28;20032;-42
2021/05/31 05:59:57;;;;;;;4.90;1.23;;;;;;;;;;5016361;28;20406;-43
2021/05/31 06:02:22;;;;;;;5.05;2.22;;;;;;;;;;5014789;28;20049;-43
2021/05/31 06:04:47;;;;;;;3.83;2.35;;;;;;;;;;5019026;28;20914;-42
2021/05/31 06:07:12;;;;;;;4.05;1.75;;;;;;;;;;5020519;28;20081;-42
2021/05/31 06:09:38;;;;;;;2.42;1.42;;;;;;;;;;5017663;28;20040;-42
2021/05/31 06:12:03;;;;;;;5.68;1.35;;;;;;;;;;5017011;28;20419;-42
2021/05/31 06:14:29;;;;;;;3.67;2.22;;;;;;;;;;5015261;28;20479;-42
2021/05/31 06:16:54;;;;;;;4.90;2.10;;;;;;;;;;5018132;28;20108;-43
2021/05/31 06:19:20;;;;;;;5.47;3.17;;;;;;;;;;5018843;28;20022;-42
2021/05/31 06:21:45;;;;;;;15.65;3.65;;;;;;;;;;5019285;28;20049;-43
2021/05/31 06:24:12;;;;;;;10.43;7.95;;;;;;;;;;5018453;28;20467;-42
2021/05/31 06:26:37;;;;;;;13.55;9.75;;;;;;;;;;5019081;28;20034;-41
2021/05/31 06:29:02;;;;;;;10.43;6.82;;;;;;;;;;5017724;28;20032;-42
2021/05/31 06:31:28;;;;;;;17.02;9.45;;;;;;;;;;5016144;28;20415;-41
2021/05/31 06:33:53;;;;;;;9.45;6.18;;;;;;;;;;5015430;28;20128;-42
2021/05/31 06:36:18;;;;;;;9.18;6.45;;;;;;;;;;5019293;28;20033;-43
2021/05/31 06:38:43;;;;;;;11.85;6.22;;;;;;;;;;5015236;28;20113;-41
2021/05/31 06:41:09;;;;;;;15.68;6.93;;;;;;;;;;5017402;28;20022;-42
2021/05/31 06:43:35;;;;;;;12.90;7.60;;;;;;;;;;5014502;28;20035;-42
2021/05/31 06:46:01;;;;;;;6.32;3.95;;;;;;;;;;5017987;28;20697;-41
2021/05/31 06:48:26;;;;;;;14.43;6.63;;;;;;;;;;5014777;28;20392;-42
2021/05/31 06:50:53;;;;;;;15.15;4.82;;;;;;;;;;5017294;28;20037;-43
2021/05/31 06:53:18;;;;;;;16.45;3.45;;;;;;;;;;5020381;28;20108;-42
2021/05/31 06:55:45;;;;;;;5.30;1.90;;;;;;;;;;5014628;28;20156;-42
2021/05/31 06:58:10;;;;;;;4.47;2.42;;;;;;;;;;5020026;28;20037;-43
2021/05/31 07:00:36;;;;;;;3.30;2.20;;;;;;;;;;5023264;28;20071;-41
2021/05/31 07:03:01;;;;;;;8.43;2.78;;;;;;;;;;5015722;28;20026;-40
2021/05/31 07:05:26;;;;;;;14.57;2.75;;;;;;;;;;5015502;28;20403;-45
2021/05/31 07:07:52;;;;;;;2.60;2.25;;;;;;;;;;5016244;28;20084;-44
2021/05/31 07:10:18;;;;;;;4.13;1.88;;;;;;;;;;5020075;28;20045;-42
2021/05/31 07:12:45;;;;;;;3.95;2.85;;;;;;;;;;5019000;28;20044;-44
2021/05/31 07:15:12;;;;;;;3.15;2.83;;;;;;;;;;5021274;28;20129;-42
2021/05/31 07:17:37;;;;;;;12.13;4.15;;;;;;;;;;5021029;28;20041;-42
2021/05/31 07:20:05;;;;;;;19.95;10.23;;;;;;;;;;5021780;28;20030;-43
2021/05/31 07:22:31;;;;;;;20.23;8.82;;;;;;;;;;5027086;28;20060;-42
2021/05/31 07:24:57;;;;;;;11.77;3.75;;;;;;;;;;5021047;28;20057;-41
2021/05/31 07:27:22;;;;;;;3.90;1.75;;;;;;;;;;5020680;28;20030;-41
2021/05/31 07:29:48;;;;;;;3.40;2.28;;;;;;;;;;5006438;28;20559;-42
2021/05/31 07:32:13;;;;;;;3.00;1.70;;;;;;;;;;5022423;28;20088;-43
2021/05/31 07:34:39;;;;;;;4.63;2.75;;;;;;;;;;5021832;28;20111;-42
2021/05/31 07:37:04;;;;;;;5.85;3.40;;;;;;;;;;5020760;28;20036;-42
2021/05/31 07:39:30;;;;;;;3.85;2.00;;;;;;;;;;5022980;28;20111;-41
2021/05/31 07:41:55;;;;;;;6.22;2.33;;;;;;;;;;5023246;28;20104;-42
2021/05/31 07:44:20;;;;;;;3.90;2.65;;;;;;;;;;5021136;28;20036;-41
2021/05/31 07:46:46;;;;;;;5.00;2.55;;;;;;;;;;5019189;28;20038;-41
2021/05/31 07:49:11;;;;;;;3.42;2.35;;;;;;;;;;5021727;28;20041;-41
2021/05/31 07:51:41;;;;;;;2.78;2.05;;;;;;;;;;5021663;28;20409;-42
2021/05/31 07:54:07;;;;;;;12.25;3.00;;;;;;;;;;5022264;28;20037;-41
2021/05/31 07:56:32;;;;;;;4.82;2.92;;;;;;;;;;5019803;28;20033;-45
2021/05/31 07:58:58;;;;;;;2.92;2.15;;;;;;;;;;5024219;28;20501;-43
2021/05/31 08:01:24;;;;;;;8.15;2.70;;;;;;;;;;5025953;28;20052;-42
2021/05/31 08:03:49;;;;;;;9.70;5.45;;;;;;;;;;5020994;28;20032;-42
2021/05/31 08:06:15;;;;;;;4.13;2.78;;;;;;;;;;5018837;28;20029;-41
2021/05/31 08:08:42;;;;;;;3.22;1.92;;;;;;;;;;5019865;28;20041;-42
2021/05/31 08:11:08;;;;;;;3.55;1.98;;;;;;;;;;5019946;28;20038;-41
2021/05/31 08:13:33;;;;;;;2.80;1.92;;;;;;;;;;5023398;28;20414;-43
2021/05/31 08:15:59;;;;;;;3.08;1.73;;;;;;;;;;5019733;28;20025;-44
2021/05/31 08:18:24;;;;;;;4.70;4.03;;;;;;;;;;5022362;28;20034;-42
2021/05/31 08:20:49;;;;;;;3.00;2.65;;;;;;;;;;5023503;28;20026;-41
2021/05/31 08:23:15;;;;;;;2.85;2.15;;;;;;;;;;5017308;28;20053;-43
2021/05/31 08:25:41;;;;;;;14.13;3.30;;;;;;;;;;5020275;28;20036;-43
2021/05/31 08:28:06;;;;;;;3.10;1.40;;;;;;;;;;5020831;28;20120;-41
2021/05/31 08:30:32;;;;;;;3.63;2.40;;;;;;;;;;5015630;28;20030;-43
2021/05/31 08:32:58;;;;;;;6.15;1.80;;;;;;;;;;5021871;28;20060;-42
2021/05/31 08:35:24;;;;;;;5.22;3.28;;;;;;;;;;5021110;28;20037;-43
2021/05/31 08:37:49;;;;;;;5.88;2.53;;;;;;;;;;5022369;28;20029;-43
2021/05/31 08:40:14;;;;;;;3.30;2.25;;;;;;;;;;5019570;28;20032;-43
2021/05/31 08:42:40;;;;;;;4.50;2.70;;;;;;;;;;5022470;28;20125;-42
2021/05/31 08:45:07;;;;;;;3.28;2.55;;;;;;;;;;5023176;28;20029;-42
2021/05/31 08:47:42;;;;;;;9.80;2.63;;;;;;;;;;5020611;28;20036;-43
2021/05/31 08:50:08;;;;;;;5.07;2.50;;;;;;;;;;5020786;28;20034;-43
2021/05/31 08:52:34;;;;;;;3.70;2.28;;;;;;;;;;5020247;28;20057;-47
2021/05/31 08:54:59;;;;;;;3.30;2.67;;;;;;;;;;5021508;28;20068;-40
2021/05/31 08:57:26;;;;;;;9.35;2.15;;;;;;;;;;5023467;28;20176;-38
2021/05/31 08:59:51;;;;;;;4.03;2.05;;;;;;;;;;5016072;28;20029;-39
2021/05/31 09:02:17;;;;;;;1.65;0.93;;;;;;;;;;5020865;28;20068;-38
2021/05/31 09:04:51;;;;;;;7.00;2.60;;;;;;;;;;5019719;28;20021;-39
2021/05/31 09:07:19;;;;;;;4.35;2.42;;;;;;;;;;5022564;28;20053;-38
2021/05/31 09:09:45;;;;;;;4.60;3.10;;;;;;;;;;5016031;28;20091;-38
2021/05/31 09:12:12;;;;;;;4.53;2.85;;;;;;;;;;5018528;28;20140;-38
2021/05/31 09:14:37;;;;;;;3.10;2.58;;;;;;;;;;5018727;28;20038;-39
2021/05/31 09:17:04;;;;;;;10.43;9.32;;;;;;;;;;5019349;28;20041;-38
2021/05/31 09:19:30;;;;;;;4.72;1.98;;;;;;;;;;5018150;28;20029;-38
2021/05/31 09:21:56;;;;;;;14.27;3.88;;;;;;;;;;5019900;28;20033;-38
2021/05/31 09:24:24;;;;;;;6.40;2.92;;;;;;;;;;5019796;28;20057;-38
2021/05/31 09:26:51;;;;;;;19.23;3.90;;;;;;;;;;5020807;28;20267;-38
2021/05/31 09:29:17;;;;;;;6.22;3.67;;;;;;;;;;5016876;28;20036;-38
2021/05/31 09:31:43;;;;;;;8.52;3.80;;;;;;;;;;5018455;28;20060;-38
2021/05/31 09:34:09;;;;;;;7.68;3.83;;;;;;;;;;5020491;28;20038;-38
2021/05/31 09:36:47;;;;;;;6.80;3.38;;;;;;;;;;5021398;28;20116;-38
2021/05/31 09:39:12;;;;;;;4.63;3.63;;;;;;;;;;5018626;28;20645;-38
2021/05/31 09:41:38;;;;;;;3.45;2.28;;;;;;;;;;5016242;28;20057;-38
2021/05/31 09:44:04;;;;;;;18.42;2.30;;;;;;;;;;5018434;28;20029;-39
2021/05/31 09:46:43;;;;;;;5.20;1.88;;;;;;;;;;5015613;28;20038;-38
2021/05/31 09:49:11;;;;;;;3.55;2.25;;;;;;;;;;5017031;28;20033;-38
2021/05/31 09:51:48;;;;;;;11.45;2.10;;;;;;;;;;5020301;28;20026;-38
2021/05/31 09:54:13;;;;;;;2.22;1.63;;;;;;;;;;5021063;28;20512;-38
2021/05/31 09:56:38;;;;;;;4.05;2.38;;;;;;;;;;5018588;28;20041;-38
2021/05/31 09:59:05;;;;;;;7.25;1.65;;;;;;;;;;5016948;28;20026;-38
2021/05/31 10:01:38;;;;;;;1.67;0.82;;;;;;;;;;5020013;28;20115;-38
2021/05/31 10:06:50;;;;;;;2.90;1.67;;;;;;;;;;5018113;28;20071;-38
2021/05/31 10:09:15;;;;;;;2.50;1.92;;;;;;;;;;5021882;28;20394;-38
2021/05/31 10:11:41;;;;;;;3.28;1.60;;;;;;;;;;5024772;28;20486;-39
2021/05/31 10:14:07;;;;;;;13.90;2.25;;;;;;;;;;5018954;28;20042;-39
2021/05/31 10:16:33;;;;;;;2.25;1.17;;;;;;;;;;5019129;28;20487;-39
2021/05/31 10:18:58;;;;;;;1.10;0.80;;;;;;;;;;4999255;28;20029;-39
2021/05/31 10:21:25;;;;;;;2.88;1.20;;;;;;;;;;5016988;28;20449;-38
2021/05/31 10:23:50;;;;;;;2.85;2.45;;;;;;;;;;5019014;28;20033;-40
2021/05/31 10:26:18;;;;;;;3.95;1.77;;;;;;;;;;5018722;28;20034;-38
2021/05/31 10:28:43;;;;;;;2.15;1.48;;;;;;;;;;5016598;28;20038;-39
2021/05/31 10:31:09;;;;;;;12.63;2.13;;;;;;;;;;5013902;28;20028;-39
2021/05/31 10:33:38;;;;;;;1.42;1.17;;;;;;;;;;5017385;28;20065;-38
2021/05/31 10:36:11;;;;;;;2.85;1.65;;;;;;;;;;5017102;28;20029;-38
2021/05/31 10:38:38;;;;;;;14.02;5.07;;;;;;;;;;5017290;28;20089;-38
2021/05/31 10:41:10;;;;;;;3.50;2.28;;;;;;;;;;5020914;28;20356;-39
2021/05/31 10:43:41;;;;;;;11.45;3.75;;;;;;;;;;5019439;28;20040;-39
2021/05/31 10:46:06;;;;;;;12.63;3.58;;;;;;;;;;5018448;28;20037;-39
2021/05/31 10:48:45;;;;;;;5.07;2.53;;;;;;;;;;5016014;28;20030;-38
2021/05/31 10:51:12;;;;;;;2.40;1.25;;;;;;;;;;5019189;28;20034;-38
2021/05/31 10:53:38;;;;;;;6.30;2.70;;;;;;;;;;5021200;28;20026;-39
2021/05/31 10:56:21;;;;;;;32.63;4.40;;;;;;;;;;5017175;28;20040;-38
2021/05/31 10:58:52;;;;;;;5.93;2.78;;;;;;;;;;5015984;28;20330;-39
2021/05/31 11:01:23;;;;;;;3.75;2.05;;;;;;;;;;5015318;28;20065;-40
2021/05/31 11:03:53;;;;;;;4.45;2.75;;;;;;;;;;5016215;28;20026;-38
2021/05/31 11:06:19;;;;;;;5.45;3.08;;;;;;;;;;5016861;28;20033;-38
2021/05/31 11:08:49;;;;;;;6.13;3.72;;;;;;;;;;5020644;28;20063;-39
2021/05/31 11:11:26;;;;;;;5.55;3.25;;;;;;;;;;5016167;28;20398;-38
2021/05/31 11:13:53;;;;;;;6.40;1.50;;;;;;;;;;5017287;28;20030;-38
2021/05/31 11:16:18;;;;;;;6.05;1.70;;;;;;;;;;5018839;28;20482;-39
2021/05/31 11:18:45;;;;;;;5.05;1.63;;;;;;;;;;5017015;28;20104;-38
2021/05/31 11:21:22;;;;;;;2.67;1.70;;;;;;;;;;5014025;28;20061;-41
2021/05/31 11:23:54;;;;;;;1.45;1.10;;;;;;;;;;5013926;28;20542;-39
2021/05/31 11:26:19;;;;;;;8.43;1.77;;;;;;;;;;5018971;28;20039;-41
2021/05/31 11:28:45;;;;;;;4.78;2.40;;;;;;;;;;5020816;28;20033;-38
2021/05/31 11:31:10;;;;;;;3.75;1.88;;;;;;;;;;5017449;28;20048;-39
2021/05/31 11:33:35;;;;;;;3.80;1.75;;;;;;;;;;5017325;28;20068;-39
2021/05/31 11:36:01;;;;;;;1.13;0.73;;;;;;;;;;5022366;28;20036;-39
2021/05/31 11:38:26;;;;;;;3.53;2.25;;;;;;;;;;5017226;28;20029;-39
2021/05/31 11:40:51;;;;;;;1.25;0.70;;;;;;;;;;5017531;28;20518;-38
2021/05/31 11:43:17;;;;;;;8.38;2.45;;;;;;;;;;5013065;28;20499;-38
2021/05/31 11:45:45;;;;;;;7.55;1.30;;;;;;;;;;5016225;28;20049;-38
2021/05/31 11:48:17;;;;;;;3.42;1.77;;;;;;;;;;5013220;28;20113;-39
2021/05/31 11:50:43;;;;;;;1.40;1.08;;;;;;;;;;5017149;28;20037;-40
2021/05/31 11:53:09;;;;;;;5.65;1.80;;;;;;;;;;5018007;28;20037;-39
2021/05/31 11:55:35;;;;;;;5.97;1.33;;;;;;;;;;5015915;28;20372;-37
2021/05/31 11:58:01;;;;;;;2.35;1.38;;;;;;;;;;5019289;28;20467;-37
2021/05/31 12:00:38;;;;;;;2.03;1.70;;;;;;;;;;5023872;28;20056;-37
2021/05/31 12:03:03;;;;;;;17.80;1.88;;;;;;;;;;5021189;28;20034;-37
2021/05/31 12:05:29;;;;;;;3.42;1.98;;;;;;;;;;5020607;28;20559;-38
2021/05/31 12:07:54;;;;;;;5.75;2.50;;;;;;;;;;5024856;28;20470;-37
2021/05/31 12:10:20;;;;;;;4.82;2.65;;;;;;;;;;5017597;28;20037;-40
2021/05/31 12:12:47;;;;;;;7.00;2.85;;;;;;;;;;5018900;28;20462;-38
2021/05/31 12:15:13;;;;;;;2.03;1.25;;;;;;;;;;5023099;28;20038;-38
2021/05/31 12:17:40;;;;;;;3.03;1.65;;;;;;;;;;5022119;28;20057;-38
2021/05/31 12:20:06;;;;;;;3.60;1.40;;;;;;;;;;5021981;28;20091;-39
2021/05/31 12:22:34;;;;;;;1.70;1.15;;;;;;;;;;5022202;28;20124;-38
2021/05/31 12:25:00;;;;;;;3.53;1.90;;;;;;;;;;5019696;28;20036;-38
2021/05/31 12:27:26;;;;;;;4.63;1.90;;;;;;;;;;5021231;28;20029;-38
2021/05/31 12:29:52;;;;;;;2.55;1.85;;;;;;;;;;5004908;28;20132;-38
2021/05/31 12:32:18;;;;;;;9.20;1.40;;;;;;;;;;5019479;28;20121;-38
2021/05/31 12:34:45;;;;;;;1.65;1.27;;;;;;;;;;5023434;28;20037;-39
2021/05/31 12:37:11;;;;;;;3.08;1.40;;;;;;;;;;5022363;28;20033;-39
2021/05/31 12:39:41;;;;;;;7.43;1.50;;;;;;;;;;5020335;28;20451;-39
2021/05/31 12:42:06;;;;;;;1.48;0.80;;;;;;;;;;5017392;28;20053;-40
2021/05/31 12:44:32;;;;;;;1.70;1.25;;;;;;;;;;5021337;28;20482;-39
2021/05/31 12:47:06;;;;;;;4.07;2.35;;;;;;;;;;5021528;28;20092;-38
2021/05/31 12:49:31;;;;;;;2.40;1.30;;;;;;;;;;5022552;28;20036;-39
2021/05/31 12:51:57;;;;;;;0.75;0.40;;;;;;;;;;5019407;28;20049;-37
2021/05/31 12:54:22;;;;;;;7.15;1.70;;;;;;;;;;5017238;28;20096;-37
2021/05/31 12:56:50;;;;;;;6.90;2.50;;;;;;;;;;5019334;28;20029;-36
2021/05/31 12:59:15;;;;;;;1.73;1.42;;;;;;;;;;5019119;28;20360;-37
2021/05/31 13:01:43;;;;;;;17.77;12.68;;;;;;;;;;5020471;28;20048;-37
2021/05/31 13:04:09;;;;;;;0.85;0.63;;;;;;;;;;5019802;28;20029;-36
2021/05/31 13:06:35;;;;;;;3.30;1.58;;;;;;;;;;5018989;28;20033;-37
2021/05/31 13:09:01;;;;;;;4.80;2.38;;;;;;;;;;5020288;28;20049;-36
2021/05/31 13:11:37;;;;;;;2.65;1.40;;;;;;;;;;5018389;28;20025;-36
2021/05/31 13:14:13;;;;;;;5.93;1.95;;;;;;;;;;5020290;28;20084;-36
2021/05/31 13:16:38;;;;;;;8.35;1.95;;;;;;;;;;5018722;28;20083;-37
2021/05/31 13:19:03;;;;;;;1.95;0.95;;;;;;;;;;5017784;28;20033;-36
2021/05/31 13:21:31;;;;;;;1.52;1.08;;;;;;;;;;5019175;28;20344;-37
2021/05/31 13:23:57;;;;;;;2.10;1.52;;;;;;;;;;5017989;28;20085;-37
2021/05/31 13:26:24;;;;;;;4.82;2.47;;;;;;;;;;5018693;28;20030;-37
2021/05/31 13:28:54;;;;;;;2.28;0.85;;;;;;;;;;5018400;28;20109;-37
2021/05/31 13:31:20;;;;;;;3.60;2.58;;;;;;;;;;5020626;28;20053;-37
2021/05/31 13:33:53;;;;;;;1.77;0.98;;;;;;;;;;5019206;28;20072;-36
2021/05/31 13:36:25;;;;;;;10.35;1.13;;;;;;;;;;5018854;28;20070;-36
2021/05/31 13:38:50;;;;;;;5.20;2.03;;;;;;;;;;5020148;28;20036;-36
2021/05/31 13:41:16;;;;;;;3.33;1.13;;;;;;;;;;5020185;28;20026;-36
2021/05/31 13:43:50;;;;;;;6.70;2.20;;;;;;;;;;5020074;28;20064;-36
2021/05/31 13:46:16;;;;;;;2.10;1.42;;;;;;;;;;5018352;28;20049;-36
2021/05/31 13:48:41;;;;;;;1.90;1.50;;;;;;;;;;5016291;28;20502;-36
2021/05/31 13:51:06;;;;;;;3.20;1.23;;;;;;;;;;5015882;28;20026;-37
2021/05/31 13:53:31;;;;;;;1.42;0.90;;;;;;;;;;5018219;28;20030;-36
2021/05/31 13:55:57;;;;;;;1.08;0.85;;;;;;;;;;5014794;28;20057;-37
2021/05/31 13:58:22;;;;;;;5.80;1.60;;;;;;;;;;5021291;28;20038;-37
2021/05/31 14:00:49;;;;;;;1.85;1.40;;;;;;;;;;5014448;28;20544;-37
2021/05/31 14:03:14;;;;;;;1.55;0.98;;;;;;;;;;5001256;28;20056;-36
2021/05/31 14:05:40;;;;;;;3.25;2.08;;;;;;;;;;4998121;28;20041;-36
2021/05/31 14:08:06;;;;;;;1.95;1.30;;;;;;;;;;5001941;28;20066;-36
2021/05/31 14:10:32;;;;;;;3.20;1.77;;;;;;;;;;4999300;28;20120;-37
2021/05/31 14:12:58;;;;;;;2.53;1.13;;;;;;;;;;5001461;28;20053;-36
2021/05/31 14:15:23;;;;;;;2.03;1.05;;;;;;;;;;4999331;28;20030;-36
2021/05/31 14:17:49;;;;;;;1.55;1.00;;;;;;;;;;4995427;28;20076;-37
2021/05/31 14:20:15;;;;;;;2.58;1.25;;;;;;;;;;4997455;28;20037;-36
2021/05/31 14:22:41;;;;;;;6.75;1.35;;;;;;;;;;4998025;28;20471;-37
2021/05/31 14:25:08;;;;;;;2.13;0.90;;;;;;;;;;4996146;28;20152;-37
2021/05/31 14:27:33;;;;;;;3.25;1.73;;;;;;;;;;4994661;28;20037;-36
2021/05/31 14:29:59;;;;;;;6.82;1.60;;;;;;;;;;4996637;28;20046;-36
2021/05/31 14:32:24;;;;;;;1.70;0.82;;;;;;;;;;4994898;28;20045;-36
2021/05/31 14:34:50;;;;;;;1.70;0.95;;;;;;;;;;5002444;28;20494;-36
2021/05/31 14:37:15;;;;;;;2.38;1.45;;;;;;;;;;4995355;28;20562;-36
2021/05/31 14:39:40;;;;;;;3.63;1.80;;;;;;;;;;5002475;28;20037;-36
2021/05/31 14:42:06;;;;;;;4.38;1.73;;;;;;;;;;5001594;28;20027;-37
2021/05/31 14:44:31;;;;;;;1.02;0.75;;;;;;;;;;4997693;28;20038;-37
2021/05/31 14:46:57;;;;;;;3.05;1.15;;;;;;;;;;4996687;28;20034;-37
2021/05/31 14:49:23;;;;;;;2.72;1.80;;;;;;;;;;5000401;28;20053;-36
2021/05/31 14:51:49;;;;;;;2.10;1.15;;;;;;;;;;4996287;28;20506;-36
2021/05/31 14:54:14;;;;;;;2.42;1.45;;;;;;;;;;4994801;28;20046;-37